Time;durP1;ratioP1;P1;durP2;ratioP2;P2;SDS_P1;SDS_P2;PMS_P1;PMS_P2;Temp;Humidity;BMP_temperature;BMP_pressure;BME280_temperature;BME280_humidity;BME280_pressure;Samples;Min_cycle;Max_cycle;Signal;HPM_P1;HPM_P2
2023/03/07 02:32:06;;;;;;;;;;;18.50;29.50;;;;;;3049921;19;18554;-81
2023/03/07 15:18:49;;;;;;;;;;;18.40;36.60;;;;;;3053756;19;6004;-70
2023/03/07 15:19:54;;;;;;;;;;;19.90;35.50;;;;;;3052975;19;5238;-71
2023/03/07 15:20:55;;;;;;;;;;;19.90;35.60;;;;;;3053506;19;5441;-70
2023/03/07 15:21:58;;;;;;;;;;;19.90;35.50;;;;;;3053826;19;5007;-70
2023/03/07 15:23:04;;;;;;;;;;;19.90;35.50;;;;;;3054463;19;5052;-71
2023/03/07 15:24:05;;;;;;;;;;;19.90;35.50;;;;;;3054636;19;4838;-71
2023/03/07 15:25:15;;;;;;;;;;;19.90;35.40;;;;;;3032652;19;4960;-71
2023/03/07 15:26:20;;;;;;;;;;;19.90;35.50;;;;;;2931919;19;2004743;-73
2023/03/07 15:27:25;;;;;;;;;;;19.80;35.50;;;;;;3033508;19;4893;-74
2023/03/07 15:28:29;;;;;;;;;;;19.90;35.40;;;;;;3054378;19;5049;-74
2023/03/07 15:29:30;;;;;;;;;;;19.80;35.40;;;;;;3054137;19;5010;-75
2023/03/07 15:30:32;;;;;;;;;;;19.80;35.40;;;;;;3054865;19;4558;-75
2023/03/07 15:32:28;;;;;;;;;;;19.80;35.40;;;;;;3050246;19;5368;-74
2023/03/07 15:33:30;;;;;;;;;;;19.80;35.30;;;;;;2849754;19;2004140;-74
2023/03/07 15:34:37;;;;;;;;;;;19.80;35.40;;;;;;3053574;19;5011;-75
2023/03/07 15:35:38;;;;;;;;;;;19.80;35.50;;;;;;3053901;19;4952;-74
2023/03/07 15:36:39;;;;;;;;;;;19.80;35.50;;;;;;3053939;19;4836;-76
2023/03/07 15:37:50;;;;;;;;;;;19.70;35.40;;;;;;3053659;19;5089;-76
2023/03/07 15:38:51;;;;;;;;;;;19.70;35.50;;;;;;3053333;19;4397;-77
2023/03/07 15:39:58;;;;;;;;;;;19.70;35.60;;;;;;3053168;19;5009;-76
2023/03/07 15:40:59;;;;;;;;;;;19.70;35.40;;;;;;3054620;19;4848;-76
2023/03/07 15:42:01;;;;;;;;;;;19.70;35.40;;;;;;3054065;19;4908;-76
2023/03/07 15:43:02;;;;;;;;;;;19.70;35.40;;;;;;3053813;19;5125;-75
2023/03/07 15:44:12;;;;;;;;;;;19.70;35.50;;;;;;3053021;19;4974;-76
2023/03/07 15:45:44;;;;;;;;;;;19.70;35.60;;;;;;3032208;19;4620;-75
2023/03/07 15:46:50;;;;;;;;;;;19.70;35.70;;;;;;2951164;19;2004189;-72
2023/03/07 15:47:50;;;;;;;;;;;19.80;35.60;;;;;;3031384;19;4991;-72
2023/03/07 15:48:52;;;;;;;;;;;19.80;35.50;;;;;;3053076;19;4887;-73
2023/03/07 15:49:56;;;;;;;;;;;19.80;35.50;;;;;;3048145;19;5361;-73
2023/03/07 15:50:58;;;;;;;;;;;19.80;35.50;;;;;;3052890;19;5366;-72
2023/03/07 15:51:59;;;;;;;;;;;19.80;35.50;;;;;;3052933;19;5460;-72
2023/03/07 15:53:05;;;;;;;;;;;19.90;35.50;;;;;;3054572;19;4883;-72
2023/03/07 15:54:38;;;;;;;;;;;19.80;35.40;;;;;;3054130;19;5778;-71
2023/03/07 15:55:38;;;;;;;;;;;19.90;35.50;;;;;;2954149;19;2004125;-72
2023/03/07 15:56:40;;;;;;;;;;;19.90;35.50;;;;;;3056045;19;4965;-72
2023/03/07 15:57:52;;;;;;;;;;;19.90;35.40;;;;;;3056157;19;4878;-72
2023/03/07 15:58:55;;;;;;;;;;;19.90;36.00;;;;;;3055377;19;5208;-72
2023/03/07 16:00:02;;;;;;;;;;;19.90;35.40;;;;;;3056629;19;4907;-72
2023/03/07 16:01:27;;;;;;;;;;;19.90;35.40;;;;;;3056520;19;4948;-70
2023/03/07 16:02:30;;;;;;;;;;;20.00;35.30;;;;;;2850284;19;2004451;-69
2023/03/07 16:03:46;;;;;;;;;;;20.00;35.30;;;;;;3035145;19;5038;-70
2023/03/07 16:04:47;;;;;;;;;;;20.00;35.20;;;;;;3053463;19;4946;-69
2023/03/07 16:05:48;;;;;;;;;;;20.00;35.30;;;;;;3055559;19;5237;-69
2023/03/07 16:06:49;;;;;;;;;;;20.00;35.20;;;;;;3055254;19;5693;-68
2023/03/07 16:07:51;;;;;;;;;;;20.00;35.20;;;;;;3055037;19;4891;-70
2023/03/07 16:08:51;;;;;;;;;;;20.00;35.20;;;;;;3055212;19;4927;-69
2023/03/07 16:09:52;;;;;;;;;;;20.00;35.30;;;;;;3055858;19;4497;-69
2023/03/07 16:11:00;;;;;;;;;;;20.00;35.30;;;;;;3056071;19;4800;-70
2023/03/07 16:12:00;;;;;;;;;;;20.00;35.20;;;;;;3057033;19;5908;-70
2023/03/07 16:13:01;;;;;;;;;;;20.00;35.20;;;;;;3056502;19;4995;-70
2023/03/07 16:14:02;;;;;;;;;;;20.00;35.20;;;;;;3055109;19;4853;-70
2023/03/07 16:15:03;;;;;;;;;;;20.00;35.10;;;;;;3053680;19;5318;-72
2023/03/07 16:16:12;;;;;;;;;;;20.00;35.30;;;;;;3056524;19;5005;-72
2023/03/07 16:17:37;;;;;;;;;;;19.90;35.10;;;;;;3055243;19;5044;-73
2023/03/07 16:18:39;;;;;;;;;;;19.90;35.10;;;;;;3054205;19;4673;-73
2023/03/07 16:19:39;;;;;;;;;;;19.90;35.20;;;;;;3054568;19;4989;-74
2023/03/07 16:20:40;;;;;;;;;;;19.90;35.10;;;;;;3054088;19;4885;-73
2023/03/07 16:21:42;;;;;;;;;;;19.90;35.10;;;;;;3056940;19;5147;-71
2023/03/07 16:22:42;;;;;;;;;;;19.80;35.10;;;;;;3055933;19;4917;-71
2023/03/07 16:23:43;;;;;;;;;;;19.80;35.10;;;;;;3054587;19;4900;-71
2023/03/07 16:24:44;;;;;;;;;;;19.80;35.10;;;;;;3056117;19;5120;-71
2023/03/07 16:25:44;;;;;;;;;;;19.80;35.20;;;;;;3057376;19;4738;-71
2023/03/07 16:26:46;;;;;;;;;;;19.80;35.20;;;;;;3055676;19;6543;-72
2023/03/07 16:27:56;;;;;;;;;;;19.80;35.20;;;;;;3056493;19;5050;-73
2023/03/07 16:28:58;;;;;;;;;;;19.90;35.20;;;;;;3052742;19;4944;-73
2023/03/07 16:29:59;;;;;;;;;;;19.90;35.20;;;;;;3056044;19;4970;-72
2023/03/07 16:31:00;;;;;;;;;;;20.00;35.20;;;;;;3053677;19;4979;-72
2023/03/07 16:32:01;;;;;;;;;;;20.00;35.10;;;;;;3057357;19;4889;-73
2023/03/07 16:33:01;;;;;;;;;;;20.00;35.10;;;;;;3057380;19;5350;-73
2023/03/07 16:34:05;;;;;;;;;;;20.00;35.10;;;;;;3056748;19;4347;-73
2023/03/07 16:35:18;;;;;;;;;;;20.00;35.10;;;;;;3055876;19;5209;-72
2023/03/07 16:36:18;;;;;;;;;;;20.00;35.00;;;;;;2850342;19;2004341;-72
2023/03/07 16:37:19;;;;;;;;;;;20.00;35.00;;;;;;3051332;19;5617;-72
2023/03/07 16:38:20;;;;;;;;;;;20.00;35.00;;;;;;3055422;19;4844;-73
2023/03/07 16:39:21;;;;;;;;;;;20.00;35.00;;;;;;3056289;19;4488;-73
2023/03/07 16:40:21;;;;;;;;;;;20.00;34.90;;;;;;3055617;19;4407;-72
2023/03/07 16:41:22;;;;;;;;;;;20.00;34.90;;;;;;3056344;19;5017;-72
2023/03/07 16:42:23;;;;;;;;;;;20.00;34.80;;;;;;3056277;19;4963;-72
2023/03/07 16:43:30;;;;;;;;;;;20.00;35.10;;;;;;3056466;19;5137;-72
2023/03/07 16:44:30;;;;;;;;;;;20.00;35.00;;;;;;3050828;19;5487;-72
2023/03/07 16:45:31;;;;;;;;;;;20.00;34.90;;;;;;3051446;19;5568;-73
2023/03/07 16:46:31;;;;;;;;;;;20.00;34.90;;;;;;3054389;19;5401;-71
2023/03/07 16:47:34;;;;;;;;;;;19.90;34.80;;;;;;3054807;19;4513;-71
2023/03/07 16:48:35;;;;;;;;;;;19.90;34.90;;;;;;3054972;19;4998;-71
2023/03/07 16:49:36;;;;;;;;;;;19.90;34.90;;;;;;3055975;19;5442;-71
2023/03/07 16:50:37;;;;;;;;;;;19.90;34.90;;;;;;3056757;19;4987;-70
2023/03/07 16:51:37;;;;;;;;;;;19.90;34.90;;;;;;3056103;19;5954;-72
2023/03/07 16:52:38;;;;;;;;;;;19.90;35.00;;;;;;3055372;19;4445;-73
2023/03/07 16:53:38;;;;;;;;;;;19.90;35.00;;;;;;3055184;19;4889;-72
2023/03/07 16:54:39;;;;;;;;;;;19.90;35.00;;;;;;3056702;19;4974;-73
2023/03/07 16:55:40;;;;;;;;;;;19.80;35.00;;;;;;3056531;19;4849;-73
2023/03/07 16:56:42;;;;;;;;;;;19.80;35.10;;;;;;3057020;19;6617;-78
2023/03/07 16:57:43;;;;;;;;;;;19.80;35.00;;;;;;3056708;19;4428;-78
2023/03/07 16:58:44;;;;;;;;;;;19.80;35.00;;;;;;3057200;19;5435;-79
2023/03/07 16:59:46;;;;;;;;;;;19.80;35.10;;;;;;3059403;19;4888;-78
2023/03/07 17:00:47;;;;;;;;;;;19.80;35.10;;;;;;3061577;19;5853;-78
2023/03/07 17:01:48;;;;;;;;;;;19.80;35.10;;;;;;3056520;19;4899;-71
2023/03/07 17:02:50;;;;;;;;;;;19.80;35.80;;;;;;3055462;19;5245;-72
2023/03/07 17:03:51;;;;;;;;;;;19.70;35.10;;;;;;3057178;19;5539;-71
2023/03/07 17:04:52;;;;;;;;;;;19.70;35.20;;;;;;3057086;19;4443;-71
2023/03/07 17:05:53;;;;;;;;;;;19.70;35.10;;;;;;3055894;19;5266;-71
2023/03/07 17:06:54;;;;;;;;;;;19.70;35.20;;;;;;3058290;19;4903;-72
2023/03/07 17:07:55;;;;;;;;;;;19.70;35.20;;;;;;3060042;19;5338;-72
2023/03/07 17:08:56;;;;;;;;;;;19.80;35.30;;;;;;3064416;19;5090;-72
2023/03/07 17:09:58;;;;;;;;;;;19.80;35.20;;;;;;3063984;19;4985;-73
2023/03/07 17:10:59;;;;;;;;;;;19.80;35.20;;;;;;3066252;19;4906;-74
2023/03/07 17:11:59;;;;;;;;;;;19.80;35.20;;;;;;3066726;19;5355;-73
2023/03/07 17:13:01;;;;;;;;;;;19.90;35.10;;;;;;3067096;19;4836;-72
2023/03/07 17:14:04;;;;;;;;;;;19.90;35.10;;;;;;3067058;19;4869;-71
2023/03/07 17:15:06;;;;;;;;;;;19.90;35.10;;;;;;3067316;19;4813;-71
2023/03/07 17:16:11;;;;;;;;;;;19.90;35.00;;;;;;3065452;19;5101;-73
2023/03/07 17:17:24;;;;;;;;;;;19.90;35.10;;;;;;3067934;19;4447;-72
2023/03/07 17:18:28;;;;;;;;;;;19.90;35.00;;;;;;3067767;19;4649;-71
2023/03/07 17:19:29;;;;;;;;;;;19.90;35.00;;;;;;3068335;19;5018;-70
2023/03/07 17:20:30;;;;;;;;;;;19.90;35.10;;;;;;3068182;19;4515;-72
2023/03/07 17:21:31;;;;;;;;;;;19.90;35.10;;;;;;3067301;19;5030;-69
2023/03/07 17:22:31;;;;;;;;;;;19.90;35.10;;;;;;3066140;19;4384;-70
2023/03/07 17:23:32;;;;;;;;;;;19.90;35.00;;;;;;3066754;19;5071;-71
2023/03/07 17:24:32;;;;;;;;;;;19.90;35.10;;;;;;3068626;19;4688;-70
2023/03/07 17:25:34;;;;;;;;;;;19.90;35.10;;;;;;3068720;19;4962;-72
2023/03/07 17:26:38;;;;;;;;;;;19.90;35.10;;;;;;3067783;19;5126;-72
2023/03/07 17:27:41;;;;;;;;;;;19.90;35.30;;;;;;3064502;19;4871;-71
2023/03/07 17:28:42;;;;;;;;;;;19.80;36.90;;;;;;3059836;19;4406;-72
2023/03/07 17:29:48;;;;;;;;;;;19.80;36.70;;;;;;3058580;19;5388;-73
2023/03/07 17:30:49;;;;;;;;;;;19.70;37.20;;;;;;3058904;19;5770;-73
2023/03/07 17:31:50;;;;;;;;;;;19.70;37.10;;;;;;3059825;19;5078;-77
2023/03/07 17:32:50;;;;;;;;;;;19.70;37.00;;;;;;3058541;19;5234;-75
2023/03/07 17:33:51;;;;;;;;;;;19.70;36.90;;;;;;3057900;19;5387;-75
2023/03/07 17:34:52;;;;;;;;;;;19.70;36.70;;;;;;3058502;19;4559;-77
2023/03/07 17:35:53;;;;;;;;;;;19.70;36.60;;;;;;3059910;19;4433;-75
2023/03/07 17:36:54;;;;;;;;;;;19.70;36.60;;;;;;3058337;19;4425;-75
2023/03/07 17:37:55;;;;;;;;;;;19.70;36.60;;;;;;3057873;19;4825;-76
2023/03/07 17:38:56;;;;;;;;;;;19.70;36.50;;;;;;3057804;19;4390;-76
2023/03/07 17:39:56;;;;;;;;;;;19.70;36.30;;;;;;3058532;19;4403;-76
2023/03/07 17:40:57;;;;;;;;;;;19.70;36.40;;;;;;3059280;19;4784;-75
2023/03/07 17:41:58;;;;;;;;;;;19.70;36.20;;;;;;3059307;19;5343;-75
2023/03/07 17:42:59;;;;;;;;;;;19.60;35.90;;;;;;3059018;19;4911;-76
2023/03/07 17:43:59;;;;;;;;;;;19.60;35.80;;;;;;3058712;19;5157;-76
2023/03/07 17:45:00;;;;;;;;;;;19.60;35.80;;;;;;3058451;19;4908;-77
2023/03/07 17:46:05;;;;;;;;;;;19.60;35.80;;;;;;3057391;19;4510;-76
2023/03/07 17:47:05;;;;;;;;;;;19.60;36.00;;;;;;3056361;19;5338;-75
2023/03/07 17:48:06;;;;;;;;;;;19.60;36.10;;;;;;3055324;19;5029;-77
2023/03/07 17:49:07;;;;;;;;;;;19.70;36.20;;;;;;3057629;19;861;-82
2023/03/07 17:50:08;;;;;;;;;;;19.70;36.00;;;;;;3056988;19;4824;-81
2023/03/07 17:51:09;;;;;;;;;;;19.70;35.90;;;;;;3056345;19;5330;-82
2023/03/07 17:52:13;;;;;;;;;;;19.70;35.80;;;;;;3057055;19;4890;-77
2023/03/07 17:53:14;;;;;;;;;;;19.70;35.80;;;;;;3057155;19;5766;-77
2023/03/07 17:54:15;;;;;;;;;;;19.70;35.70;;;;;;3056622;19;4289;-77
2023/03/07 17:55:15;;;;;;;;;;;19.70;35.70;;;;;;3057033;19;5006;-77
2023/03/07 17:56:16;;;;;;;;;;;19.70;35.80;;;;;;3057013;19;4784;-78
2023/03/07 17:57:17;;;;;;;;;;;19.70;35.80;;;;;;3056724;19;4981;-77
2023/03/07 17:58:18;;;;;;;;;;;19.70;35.80;;;;;;3056490;19;4831;-78
2023/03/07 17:59:18;;;;;;;;;;;19.70;35.70;;;;;;3057199;19;4898;-78
2023/03/07 18:00:19;;;;;;;;;;;19.70;35.70;;;;;;3056395;19;4648;-78
2023/03/07 18:01:20;;;;;;;;;;;19.70;35.80;;;;;;3055589;19;5246;-72
2023/03/07 18:02:20;;;;;;;;;;;19.80;35.80;;;;;;3055622;19;5443;-73
2023/03/07 18:03:21;;;;;;;;;;;19.80;35.90;;;;;;3055233;19;5391;-72
2023/03/07 18:04:22;;;;;;;;;;;19.80;35.90;;;;;;3055395;19;4990;-73
2023/03/07 18:05:24;;;;;;;;;;;19.80;35.80;;;;;;3055703;19;5051;-73
2023/03/07 18:06:25;;;;;;;;;;;19.80;35.80;;;;;;3054230;19;4896;-76
2023/03/07 18:07:26;;;;;;;;;;;19.80;35.80;;;;;;3055118;19;4674;-75
2023/03/07 18:08:27;;;;;;;;;;;19.80;35.80;;;;;;3055895;19;4639;-76
2023/03/07 18:09:28;;;;;;;;;;;19.80;35.80;;;;;;3056073;19;4799;-76
2023/03/07 18:10:28;;;;;;;;;;;19.80;35.80;;;;;;3056274;19;4881;-75
2023/03/07 18:11:29;;;;;;;;;;;19.80;35.80;;;;;;3055009;19;5069;-76
2023/03/07 18:12:30;;;;;;;;;;;19.90;35.80;;;;;;3051223;19;4952;-77
2023/03/07 18:13:31;;;;;;;;;;;19.90;35.70;;;;;;3053776;19;4979;-77
2023/03/07 18:14:31;;;;;;;;;;;19.90;35.70;;;;;;3052968;19;4426;-77
2023/03/07 18:15:33;;;;;;;;;;;19.90;35.80;;;;;;3054022;19;5080;-76
2023/03/07 18:16:34;;;;;;;;;;;19.90;35.80;;;;;;3053022;19;4779;-73
2023/03/07 18:17:35;;;;;;;;;;;19.90;35.90;;;;;;3054137;19;4817;-73
2023/03/07 18:18:37;;;;;;;;;;;19.90;36.00;;;;;;3053855;19;4945;-73
2023/03/07 18:19:39;;;;;;;;;;;19.80;36.00;;;;;;3052544;19;5398;-73
2023/03/07 18:20:40;;;;;;;;;;;19.80;35.90;;;;;;3054627;19;5195;-73
2023/03/07 18:21:42;;;;;;;;;;;19.80;35.90;;;;;;3055635;19;5314;-77
2023/03/07 18:22:43;;;;;;;;;;;19.80;35.90;;;;;;3053946;19;4993;-77
2023/03/07 18:23:43;;;;;;;;;;;19.80;35.90;;;;;;3052718;19;5156;-76
2023/03/07 18:24:44;;;;;;;;;;;19.80;36.00;;;;;;3053367;19;4947;-78
2023/03/07 18:25:45;;;;;;;;;;;19.80;35.90;;;;;;3054209;19;4803;-76
2023/03/07 18:26:48;;;;;;;;;;;19.80;36.00;;;;;;3052975;19;4969;-74
2023/03/07 18:27:49;;;;;;;;;;;19.80;36.00;;;;;;3054233;19;4714;-71
2023/03/07 18:28:52;;;;;;;;;;;19.70;36.00;;;;;;3055567;19;4590;-71
2023/03/07 18:29:53;;;;;;;;;;;19.70;36.10;;;;;;3055708;19;4955;-72
2023/03/07 18:31:02;;;;;;;;;;;19.70;36.10;;;;;;3054272;19;4926;-72
2023/03/07 18:32:03;;;;;;;;;;;19.80;36.10;;;;;;3054991;19;5700;-72
2023/03/07 18:33:03;;;;;;;;;;;19.70;36.20;;;;;;3053919;19;4435;-72
2023/03/07 18:34:04;;;;;;;;;;;19.80;36.30;;;;;;3054246;19;4874;-72
2023/03/07 18:35:05;;;;;;;;;;;19.80;36.20;;;;;;3053221;19;4446;-73
2023/03/07 18:36:08;;;;;;;;;;;19.90;36.10;;;;;;3056681;19;875;-72
2023/03/07 18:37:10;;;;;;;;;;;19.90;36.20;;;;;;3045623;19;3995;-72
2023/03/07 18:38:10;;;;;;;;;;;19.90;36.20;;;;;;3051324;19;4841;-71
2023/03/07 18:39:11;;;;;;;;;;;19.90;36.10;;;;;;3051413;19;4474;-72
2023/03/07 18:40:12;;;;;;;;;;;19.90;36.10;;;;;;3053386;19;5154;-71
2023/03/07 18:41:18;;;;;;;;;;;20.00;36.00;;;;;;3053828;19;4708;-73
2023/03/07 18:42:18;;;;;;;;;;;19.90;36.00;;;;;;3053709;19;4840;-72
2023/03/07 18:43:19;;;;;;;;;;;19.90;36.10;;;;;;3052155;19;5287;-73
2023/03/07 18:44:20;;;;;;;;;;;20.00;36.10;;;;;;3052891;19;4792;-72
2023/03/07 18:45:21;;;;;;;;;;;19.90;36.00;;;;;;3051684;19;4798;-72
2023/03/07 18:46:22;;;;;;;;;;;20.00;36.00;;;;;;3053711;19;5054;-77
2023/03/07 18:47:23;;;;;;;;;;;20.00;36.00;;;;;;3053476;19;5063;-77
2023/03/07 18:48:25;;;;;;;;;;;20.00;36.00;;;;;;3054373;19;4895;-77
2023/03/07 18:49:26;;;;;;;;;;;20.00;36.00;;;;;;3053953;19;5910;-78
2023/03/07 18:50:26;;;;;;;;;;;19.90;35.90;;;;;;3053928;19;4820;-78
2023/03/07 18:51:28;;;;;;;;;;;19.90;35.90;;;;;;3053916;19;4348;-75
2023/03/07 18:52:29;;;;;;;;;;;19.90;35.90;;;;;;3053447;19;4908;-75
2023/03/07 18:53:29;;;;;;;;;;;19.90;36.00;;;;;;3053111;19;4844;-75
2023/03/07 18:54:30;;;;;;;;;;;19.90;36.00;;;;;;3053670;19;5104;-75
2023/03/07 18:55:33;;;;;;;;;;;19.90;35.90;;;;;;3051998;19;4452;-75
2023/03/07 18:56:33;;;;;;;;;;;19.80;36.00;;;;;;3051782;19;4945;-76
2023/03/07 18:57:34;;;;;;;;;;;19.80;36.00;;;;;;3052852;19;4817;-78
2023/03/07 18:58:35;;;;;;;;;;;19.80;35.90;;;;;;3053152;19;4717;-75
2023/03/07 18:59:35;;;;;;;;;;;19.80;36.00;;;;;;3053426;19;4901;-75
2023/03/07 19:00:36;;;;;;;;;;;19.80;36.10;;;;;;3052715;19;4581;-75
2023/03/07 19:01:38;;;;;;;;;;;19.80;36.10;;;;;;3054281;19;4721;-82
2023/03/07 19:02:39;;;;;;;;;;;19.80;36.00;;;;;;3053587;19;4399;-82
2023/03/07 19:03:41;;;;;;;;;;;19.70;36.10;;;;;;3049740;19;5039;-82
2023/03/07 19:04:41;;;;;;;;;;;19.70;36.10;;;;;;3053713;19;5021;-82
2023/03/07 19:05:44;;;;;;;;;;;19.70;36.00;;;;;;3054497;19;5390;-82
2023/03/07 19:06:46;;;;;;;;;;;19.70;36.00;;;;;;3054144;19;5161;-76
2023/03/07 19:07:46;;;;;;;;;;;19.70;36.70;;;;;;3053668;19;4915;-76
2023/03/07 19:08:47;;;;;;;;;;;19.70;36.10;;;;;;3052443;19;5204;-76
2023/03/07 19:09:52;;;;;;;;;;;19.70;36.10;;;;;;3053742;19;6065;-76
2023/03/07 19:10:52;;;;;;;;;;;19.70;36.20;;;;;;3052977;19;4956;-75
2023/03/07 19:11:53;;;;;;;;;;;19.70;36.20;;;;;;3052855;19;4899;-76
2023/03/07 19:12:54;;;;;;;;;;;19.70;36.10;;;;;;3054560;19;5511;-75
2023/03/07 19:13:56;;;;;;;;;;;19.80;36.20;;;;;;3052200;19;5759;-76
2023/03/07 19:14:56;;;;;;;;;;;19.80;36.10;;;;;;3052695;19;5232;-76
2023/03/07 19:16:05;;;;;;;;;;;19.80;36.00;;;;;;3053956;19;5056;-75
2023/03/07 19:17:06;;;;;;;;;;;19.80;35.90;;;;;;3053665;19;5395;-76
2023/03/07 19:18:07;;;;;;;;;;;19.80;35.90;;;;;;3053031;19;5087;-74
2023/03/07 19:19:07;;;;;;;;;;;19.80;35.90;;;;;;3054378;19;5061;-74
2023/03/07 19:20:09;;;;;;;;;;;19.80;35.90;;;;;;3054186;19;3960;-75
2023/03/07 19:21:14;;;;;;;;;;;19.80;35.90;;;;;;3052377;19;5026;-78
2023/03/07 19:22:15;;;;;;;;;;;19.80;35.90;;;;;;3054976;19;4899;-78
2023/03/07 19:23:15;;;;;;;;;;;19.80;35.90;;;;;;3055784;19;5222;-79
2023/03/07 19:24:16;;;;;;;;;;;19.80;35.90;;;;;;3036552;19;5483;-78
2023/03/07 19:25:17;;;;;;;;;;;19.80;35.90;;;;;;3053582;19;5699;-79
2023/03/07 19:26:19;;;;;;;;;;;19.80;35.90;;;;;;3055010;19;4264;-74
2023/03/07 19:27:19;;;;;;;;;;;19.80;35.90;;;;;;3053368;19;4469;-74
2023/03/07 19:28:20;;;;;;;;;;;19.80;35.90;;;;;;3056221;19;5139;-74
2023/03/07 19:29:21;;;;;;;;;;;19.80;35.90;;;;;;3055583;19;4995;-73
2023/03/07 19:30:21;;;;;;;;;;;19.80;35.90;;;;;;3056748;19;4628;-74
2023/03/07 19:31:26;;;;;;;;;;;19.80;35.90;;;;;;3059216;19;4943;-78
2023/03/07 19:32:29;;;;;;;;;;;19.80;35.90;;;;;;3059768;19;5114;-78
2023/03/07 19:33:30;;;;;;;;;;;19.70;35.80;;;;;;3058575;19;4918;-77
2023/03/07 19:34:30;;;;;;;;;;;19.70;35.90;;;;;;3058290;19;5017;-78
2023/03/07 19:35:31;;;;;;;;;;;19.70;35.90;;;;;;3057556;19;4605;-78
2023/03/07 19:36:34;;;;;;;;;;;19.70;36.00;;;;;;3059511;19;4384;-81
2023/03/07 19:37:35;;;;;;;;;;;19.70;36.00;;;;;;3059516;19;4842;-80
2023/03/07 19:38:37;;;;;;;;;;;19.70;36.00;;;;;;3068960;19;4415;-79
2023/03/07 19:39:38;;;;;;;;;;;19.60;36.00;;;;;;3070707;19;5015;-80
2023/03/07 19:40:38;;;;;;;;;;;19.60;36.00;;;;;;3070059;19;4892;-80
2023/03/07 19:41:40;;;;;;;;;;;19.60;36.00;;;;;;3069246;19;4478;-73
2023/03/07 19:42:41;;;;;;;;;;;19.60;36.00;;;;;;3069221;19;5715;-72
2023/03/07 19:43:42;;;;;;;;;;;19.60;36.00;;;;;;3067970;19;4491;-71
2023/03/07 19:44:42;;;;;;;;;;;19.60;36.00;;;;;;3067606;19;6097;-71
2023/03/07 19:45:43;;;;;;;;;;;19.60;36.00;;;;;;3068498;19;4924;-72
2023/03/07 19:46:47;;;;;;;;;;;19.60;36.00;;;;;;3046077;19;4424;-70
2023/03/07 19:47:48;;;;;;;;;;;19.60;36.10;;;;;;3068621;19;4967;-71
2023/03/07 19:48:49;;;;;;;;;;;19.60;36.10;;;;;;3069792;19;4476;-71
2023/03/07 19:49:50;;;;;;;;;;;19.60;36.10;;;;;;3068753;19;5098;-71
2023/03/07 19:50:51;;;;;;;;;;;19.60;36.10;;;;;;3069219;19;5125;-71
2023/03/07 19:51:52;;;;;;;;;;;19.60;36.00;;;;;;3068667;19;4983;-76
2023/03/07 19:52:54;;;;;;;;;;;19.60;36.00;;;;;;3069403;19;4396;-75
2023/03/07 19:53:54;;;;;;;;;;;19.70;36.00;;;;;;3069537;19;5021;-75
2023/03/07 19:54:55;;;;;;;;;;;19.70;35.90;;;;;;3071135;19;5181;-75
2023/03/07 19:55:56;;;;;;;;;;;19.70;36.50;;;;;;3068014;19;4813;-76
2023/03/07 19:56:56;;;;;;;;;;;19.70;35.80;;;;;;3067933;19;5363;-72
2023/03/07 19:57:57;;;;;;;;;;;19.70;35.90;;;;;;3066462;19;4831;-71
2023/03/07 19:58:59;;;;;;;;;;;19.70;35.80;;;;;;3062403;19;4881;-70
2023/03/07 19:59:59;;;;;;;;;;;19.80;35.90;;;;;;3060364;19;4935;-72
2023/03/07 20:01:00;;;;;;;;;;;19.80;35.80;;;;;;3061367;19;5332;-71
2023/03/07 20:02:01;;;;;;;;;;;19.80;35.80;;;;;;3058923;19;4857;-71
2023/03/07 20:03:01;;;;;;;;;;;19.80;35.70;;;;;;3059648;19;5519;-71
2023/03/07 20:04:03;;;;;;;;;;;19.80;35.80;;;;;;3060424;19;5268;-71
2023/03/07 20:05:04;;;;;;;;;;;19.90;35.70;;;;;;3058933;19;5336;-71
2023/03/07 20:06:06;;;;;;;;;;;19.90;35.70;;;;;;3059985;19;4484;-71
2023/03/07 20:07:06;;;;;;;;;;;19.90;35.70;;;;;;3058541;19;6963;-72
2023/03/07 20:08:07;;;;;;;;;;;20.00;35.70;;;;;;3057098;19;5656;-71
2023/03/07 20:09:11;;;;;;;;;;;20.00;35.60;;;;;;3059168;19;939;-72
2023/03/07 20:10:12;;;;;;;;;;;20.00;35.50;;;;;;3055973;19;6058;-71
2023/03/07 20:11:17;;;;;;;;;;;20.00;35.50;;;;;;3058068;19;4933;-71
2023/03/07 20:12:18;;;;;;;;;;;20.00;35.60;;;;;;3058122;19;4448;-71
2023/03/07 20:13:18;;;;;;;;;;;20.00;35.50;;;;;;3056629;19;4831;-71
2023/03/07 20:14:19;;;;;;;;;;;20.00;35.40;;;;;;3056301;19;4883;-72
2023/03/07 20:15:19;;;;;;;;;;;20.00;35.40;;;;;;3057160;19;5979;-71
2023/03/07 20:16:20;;;;;;;;;;;20.00;35.30;;;;;;3057276;19;6286;-71
2023/03/07 20:17:21;;;;;;;;;;;20.00;35.30;;;;;;3056709;19;4931;-70
2023/03/07 20:18:23;;;;;;;;;;;20.00;35.30;;;;;;3055811;19;4679;-71
2023/03/07 20:19:23;;;;;;;;;;;20.00;36.00;;;;;;3057340;19;4397;-71
2023/03/07 20:20:24;;;;;;;;;;;20.00;35.30;;;;;;3057052;19;5195;-71
2023/03/07 20:21:25;;;;;;;;;;;20.00;35.30;;;;;;3057072;19;4797;-80
2023/03/07 20:22:27;;;;;;;;;;;20.00;35.30;;;;;;3055674;19;4806;-80
2023/03/07 20:23:28;;;;;;;;;;;20.00;35.40;;;;;;3056032;19;5447;-81
2023/03/07 20:24:28;;;;;;;;;;;20.00;35.30;;;;;;3056971;19;4931;-80
2023/03/07 20:25:29;;;;;;;;;;;20.00;35.30;;;;;;3057435;19;5561;-80
2023/03/07 20:26:33;;;;;;;;;;;20.00;35.40;;;;;;3056878;19;4776;-71
2023/03/07 20:27:34;;;;;;;;;;;20.00;35.40;;;;;;3056997;19;4760;-71
2023/03/07 20:28:35;;;;;;;;;;;19.90;35.30;;;;;;3056246;19;4917;-72
2023/03/07 20:29:35;;;;;;;;;;;19.90;35.40;;;;;;3054784;19;5884;-72
2023/03/07 20:30:38;;;;;;;;;;;19.90;35.40;;;;;;3055508;19;5292;-72
2023/03/07 20:31:38;;;;;;;;;;;19.90;35.40;;;;;;3055466;19;4860;-72
2023/03/07 20:32:40;;;;;;;;;;;19.90;35.50;;;;;;3055998;19;5335;-71
2023/03/07 20:33:45;;;;;;;;;;;19.90;35.50;;;;;;3055674;19;5268;-72
2023/03/07 20:34:49;;;;;;;;;;;19.90;35.50;;;;;;3055032;19;4860;-71
2023/03/07 20:36:02;;;;;;;;;;;19.80;35.50;;;;;;3055221;19;5359;-72
2023/03/07 20:37:03;;;;;;;;;;;19.80;35.50;;;;;;3054612;19;4801;-72
2023/03/07 20:38:04;;;;;;;;;;;19.80;35.60;;;;;;3055764;19;5166;-72
2023/03/07 20:39:06;;;;;;;;;;;19.80;35.50;;;;;;3055376;19;4343;-72
2023/03/07 20:40:08;;;;;;;;;;;19.70;35.50;;;;;;3052535;19;5099;-71
2023/03/07 20:41:12;;;;;;;;;;;19.80;35.60;;;;;;3055356;19;4936;-72
2023/03/07 20:42:13;;;;;;;;;;;19.70;35.70;;;;;;3057382;19;4815;-71
2023/03/07 20:43:13;;;;;;;;;;;19.70;35.60;;;;;;3055253;19;4775;-71
2023/03/07 20:44:14;;;;;;;;;;;19.70;35.60;;;;;;3056625;19;4909;-71
2023/03/07 20:45:15;;;;;;;;;;;19.70;35.70;;;;;;3053384;19;5257;-71
2023/03/07 20:46:16;;;;;;;;;;;19.60;35.70;;;;;;3055796;19;5160;-72
2023/03/07 20:47:17;;;;;;;;;;;19.60;35.70;;;;;;3055056;19;7072;-72
2023/03/07 20:48:17;;;;;;;;;;;19.60;35.70;;;;;;3054696;19;4898;-73
2023/03/07 20:49:18;;;;;;;;;;;19.60;35.80;;;;;;3055328;19;5342;-72
2023/03/07 20:50:18;;;;;;;;;;;19.60;35.70;;;;;;3055896;19;4826;-72
2023/03/07 20:51:21;;;;;;;;;;;19.60;35.70;;;;;;3056806;19;5245;-81
2023/03/07 20:52:24;;;;;;;;;;;19.60;35.70;;;;;;3055928;19;5561;-81
2023/03/07 20:53:24;;;;;;;;;;;19.60;35.80;;;;;;3055376;19;5293;-79
2023/03/07 20:54:25;;;;;;;;;;;19.60;35.80;;;;;;3055219;19;5787;-80
2023/03/07 20:55:27;;;;;;;;;;;19.60;35.90;;;;;;3055082;19;5615;-80
2023/03/07 20:56:30;;;;;;;;;;;19.60;35.80;;;;;;3056231;19;4730;-77
2023/03/07 20:57:32;;;;;;;;;;;19.50;36.00;;;;;;3055894;19;5370;-76
2023/03/07 20:58:32;;;;;;;;;;;19.50;35.80;;;;;;3054661;19;5209;-76
2023/03/07 20:59:33;;;;;;;;;;;19.50;35.80;;;;;;3053833;19;5008;-76
2023/03/07 21:00:34;;;;;;;;;;;19.50;35.90;;;;;;3053355;19;5375;-76
2023/03/07 21:01:34;;;;;;;;;;;19.50;35.90;;;;;;3053587;19;4946;-75
2023/03/07 21:02:35;;;;;;;;;;;19.50;35.90;;;;;;3053555;19;4993;-76
2023/03/07 21:03:36;;;;;;;;;;;19.50;35.90;;;;;;3031352;19;5015;-75
2023/03/07 21:04:36;;;;;;;;;;;19.50;35.90;;;;;;3052753;19;5198;-76
2023/03/07 21:05:38;;;;;;;;;;;19.40;35.90;;;;;;3052884;19;4957;-76
2023/03/07 21:06:41;;;;;;;;;;;19.40;35.90;;;;;;3049674;19;5429;-72
2023/03/07 21:07:42;;;;;;;;;;;19.40;35.90;;;;;;3051990;19;5353;-72
2023/03/07 21:08:43;;;;;;;;;;;19.40;35.90;;;;;;3051247;19;4887;-73
2023/03/07 21:09:49;;;;;;;;;;;19.40;36.00;;;;;;3052812;19;4826;-72
2023/03/07 21:10:57;;;;;;;;;;;19.40;35.90;;;;;;3054340;19;5042;-71
2023/03/07 21:11:57;;;;;;;;;;;19.40;36.00;;;;;;3052469;19;6165;-71
2023/03/07 21:13:00;;;;;;;;;;;19.40;36.00;;;;;;3053155;19;4937;-72
2023/03/07 21:14:01;;;;;;;;;;;19.40;36.00;;;;;;3052039;19;6035;-72
2023/03/07 21:15:02;;;;;;;;;;;19.30;36.00;;;;;;3051358;19;4333;-71
2023/03/07 21:16:05;;;;;;;;;;;19.40;36.10;;;;;;3053202;19;5623;-74
2023/03/07 21:17:07;;;;;;;;;;;19.30;36.00;;;;;;3050242;19;5329;-73
2023/03/07 21:18:08;;;;;;;;;;;19.30;36.00;;;;;;3051720;19;5169;-72
2023/03/07 21:19:10;;;;;;;;;;;19.30;36.00;;;;;;3052479;19;5308;-73
2023/03/07 21:20:12;;;;;;;;;;;19.30;36.00;;;;;;3053995;19;4733;-72
2023/03/07 21:21:14;;;;;;;;;;;19.30;36.00;;;;;;3052514;19;5135;-80
2023/03/07 21:22:15;;;;;;;;;;;19.30;36.00;;;;;;3052850;19;7451;-81
2023/03/07 21:23:16;;;;;;;;;;;19.30;36.00;;;;;;3054318;19;5836;-80
2023/03/07 21:24:18;;;;;;;;;;;19.30;36.20;;;;;;3054086;19;5227;-80